createdAt,value
2023-02-02T00:02:05.892Z,97983.91
2023-02-02T00:04:34.310Z,97971.16
2023-02-02T00:07:07.713Z,97976.47
2023-02-02T00:09:34.856Z,97981.56
2023-02-02T00:12:08.121Z,97987.47
2023-02-02T00:14:35.144Z,97989.78
2023-02-02T00:17:05.119Z,97980.13
2023-02-02T00:19:37.484Z,97975.63
2023-02-02T00:22:07.056Z,97980.13
2023-02-02T00:24:38.142Z,97978.50
2023-02-02T00:27:08.045Z,97978.50
2023-02-02T00:29:35.798Z,97982.59
2023-02-02T00:32:10.002Z,97982.94
2023-02-02T00:34:40.136Z,97981.91
2023-02-02T00:37:13.017Z,97980.28
2023-02-02T00:39:44.724Z,97974.59
2023-02-02T00:42:13.191Z,97979.44
2023-02-02T00:45:09.501Z,97971.53
2023-02-02T00:47:37.891Z,97980.44
2023-02-02T00:50:05.319Z,97975.59
2023-02-02T00:52:32.517Z,97976.63
2023-02-02T00:54:59.477Z,97971.75
2023-02-02T00:57:26.272Z,97978.53
2023-02-02T00:59:57.906Z,97977.38
2023-02-02T01:02:27.786Z,97972.28
2023-02-02T01:04:54.764Z,97966.38
2023-02-02T01:07:21.645Z,97973.53
2023-02-02T01:09:50.926Z,97964.53
2023-02-02T01:12:19.895Z,97968.56
2023-02-02T01:14:46.803Z,97967.31
2023-02-02T01:17:14.916Z,97967.09
2023-02-02T01:19:41.891Z,97973.00
2023-02-02T01:22:11.585Z,97968.28
2023-02-02T01:24:38.861Z,97965.63
2023-02-02T01:27:09.217Z,97959.84
2023-02-02T01:29:36.144Z,97964.69
2023-02-02T01:32:04.020Z,97962.63
2023-02-02T01:34:34.211Z,97961.13
2023-02-02T01:37:01.120Z,97957.19
2023-02-02T01:39:38.691Z,97958.00
2023-02-02T01:42:15.187Z,97962.84
2023-02-02T01:45:04.916Z,97963.22
2023-02-02T01:47:35.833Z,97962.97
2023-02-02T01:50:04.735Z,97959.03
2023-02-02T01:52:35.469Z,97955.13
2023-02-02T01:55:11.033Z,97961.84
2023-02-02T01:58:05.132Z,97953.41
2023-02-02T02:00:33.860Z,97958.72
2023-02-02T02:03:03.530Z,97959.31
2023-02-02T02:05:33.958Z,97960.69
2023-02-02T02:08:33.812Z,97953.53
2023-02-02T02:11:02.595Z,97960.47
2023-02-02T02:13:49.252Z,97957.56
2023-02-02T02:16:25.931Z,97965.09
2023-02-02T02:18:54.159Z,97958.72
2023-02-02T02:22:23.664Z,97957.69
2023-02-02T02:25:29.460Z,97953.06
2023-02-02T02:28:12.854Z,97954.31
2023-02-02T02:30:40.197Z,97956.19
2023-02-02T02:33:34.399Z,97951.31
2023-02-02T02:36:04.896Z,97950.16
2023-02-02T02:38:52.460Z,97956.75
2023-02-02T02:41:27.678Z,97955.72
2023-02-02T02:44:34.594Z,97959.19
2023-02-02T02:47:02.282Z,97963.72
2023-02-02T02:49:32.417Z,97953.63
2023-02-02T02:52:08.021Z,97966.72
2023-02-02T02:54:48.679Z,97963.25
2023-02-02T02:57:44.038Z,97967.31
2023-02-02T03:00:21.986Z,97960.94
2023-02-02T03:03:33.720Z,97959.31
2023-02-02T03:06:08.943Z,97965.91
2023-02-02T03:09:03.392Z,97964.53
2023-02-02T03:11:31.841Z,97956.75
2023-02-02T03:14:09.795Z,97961.03
2023-02-02T03:16:40.292Z,97964.06
2023-02-02T03:19:54.120Z,97966.25
2023-02-02T04:07:16.752Z,97988.00
2023-02-02T04:09:52.849Z,97979.78
2023-02-02T04:15:52.176Z,97987.41
2023-02-02T04:23:13.141Z,97977.44
2023-02-02T04:25:47.059Z,97988.56
2023-02-02T04:28:30.070Z,97985.31
2023-02-02T04:34:34.513Z,97986.94
2023-02-02T05:00:04.186Z,97994.47
2023-02-02T05:02:35.543Z,98003.47
2023-02-02T05:05:03.364Z,98004.28
2023-02-02T05:07:43.534Z,97993.06
2023-02-02T05:10:45.349Z,98001.25
2023-02-02T05:13:24.991Z,98008.22
2023-02-02T05:15:57.525Z,98002.28
2023-02-02T05:18:32.497Z,98012.94
2023-02-02T05:21:03.829Z,98006.81
2023-02-02T05:23:31.886Z,98006.81
2023-02-02T05:25:59.219Z,98003.31
2023-02-02T05:28:26.374Z,98008.66
2023-02-02T05:30:53.954Z,98012.13
2023-02-02T05:33:21.055Z,98014.78
2023-02-02T05:35:49.053Z,98018.25
2023-02-02T05:38:16.535Z,98013.75
2023-02-02T05:40:49.658Z,98011.47
2023-02-02T05:43:16.895Z,98009.41
2023-02-02T05:45:43.917Z,98006.28
2023-02-02T05:48:32.562Z,98006.03
2023-02-02T05:51:02.128Z,98008.25
2023-02-02T05:53:32.320Z,98005.13
2023-02-02T05:55:59.544Z,98022.50
2023-02-02T05:58:26.907Z,98023.09
2023-02-02T06:00:56.495Z,98026.91
2023-02-02T06:03:23.912Z,98024.03
2023-02-02T06:05:50.873Z,98032.19
2023-02-02T06:08:28.306Z,98023.28
2023-02-02T06:10:58.102Z,98032.78
2023-02-02T06:13:24.908Z,98023.28
2023-02-02T06:15:52.114Z,98028.16
2023-02-02T06:25:44.709Z,98035.44
2023-02-02T06:28:34.244Z,98027.03
2023-02-02T06:31:19.500Z,98036.19
2023-02-02T06:33:49.991Z,98043.13
2023-02-02T06:36:17.046Z,98041.63
2023-02-02T06:38:44.243Z,98041.97
2023-02-02T06:41:11.433Z,98042.56
2023-02-02T06:43:42.833Z,98039.66
2023-02-02T06:46:15.584Z,98039.44
2023-02-02T06:48:46.155Z,98034.78
2023-02-02T06:51:13.151Z,98046.19
2023-02-02T06:53:40.059Z,98047.34
2023-02-02T06:56:08.461Z,98046.31
2023-02-02T06:58:39.159Z,98041.19
2023-02-02T07:01:08.371Z,98047.13
2023-02-02T07:03:35.720Z,98056.28
2023-02-02T07:06:17.088Z,98045.81
2023-02-02T07:08:45.416Z,98057.44
2023-02-02T07:11:21.807Z,98066.25
2023-02-02T07:13:49.664Z,98055.69
2023-02-02T07:16:17.761Z,98054.06
2023-02-02T07:18:46.903Z,98063.09
2023-02-02T07:21:19.913Z,98065.19
2023-02-02T07:23:52.879Z,98068.44
2023-02-02T07:26:20.286Z,98062.19
2023-02-02T07:28:47.510Z,98066.38
2023-02-02T07:31:35.552Z,98061.25
2023-02-02T07:34:28.853Z,98070.41
2023-02-02T07:36:59.643Z,98071.69
2023-02-02T07:39:33.265Z,98070.53
2023-02-02T07:42:04.826Z,98072.25
2023-02-02T07:45:27.207Z,98065.88
2023-02-02T07:47:58.833Z,98066.19
2023-02-02T07:50:51.371Z,98052.94
2023-02-02T07:53:18.381Z,98062.81
2023-02-02T07:55:45.466Z,98059.91
2023-02-02T07:58:15.488Z,98062.09
2023-02-02T08:00:43.208Z,98071.78
2023-02-02T08:03:13.547Z,98064.19
2023-02-02T08:05:41.352Z,98065.00
2023-02-02T08:08:08.610Z,98070.25
2023-02-02T08:10:47.257Z,98066.88
2023-02-02T08:13:14.853Z,98067.19
2023-02-02T08:15:41.891Z,98080.66
2023-02-02T08:18:08.935Z,98072.41
2023-02-02T08:20:35.816Z,98074.25
2023-02-02T08:23:02.820Z,98063.66
2023-02-02T08:25:29.915Z,98071.91
2023-02-02T08:28:03.388Z,98070.00
2023-02-02T08:30:30.651Z,98077.84
2023-02-02T08:32:57.780Z,98066.13
2023-02-02T08:35:25.445Z,98058.66
2023-02-02T08:37:52.884Z,98067.03
2023-02-02T08:40:20.626Z,98059.59
2023-02-02T08:42:52.915Z,98066.00
2023-02-02T08:46:02.743Z,98064.94
2023-02-02T08:48:11.986Z,98060.16
2023-02-02T08:50:39.384Z,98062.75
2023-02-02T08:53:06.237Z,98061.34
2023-02-02T08:55:33.214Z,98068.41
2023-02-02T08:58:00.140Z,98061.38
2023-02-02T09:00:27.148Z,98064.56
2023-02-02T09:02:54.029Z,98061.50
2023-02-02T09:05:20.856Z,98065.78
2023-02-02T09:07:49.395Z,98060.38
2023-02-02T09:10:16.690Z,98057.00
2023-02-02T09:12:43.539Z,98066.97
2023-02-02T09:15:11.086Z,98059.34
2023-02-02T09:17:37.967Z,98063.31
2023-02-02T09:20:05.187Z,98055.53
2023-02-02T09:22:32.840Z,98062.63
2023-02-02T09:24:59.722Z,98067.66
2023-02-02T09:27:26.638Z,98055.56
2023-02-02T09:29:53.791Z,98056.28
2023-02-02T09:32:20.701Z,98069.22
2023-02-02T09:34:47.999Z,98065.41
2023-02-02T09:37:15.196Z,98060.06
2023-02-02T09:39:42.063Z,98067.63
2023-02-02T09:42:31.853Z,98067.47
2023-02-02T09:45:12.457Z,98060.09
2023-02-02T09:48:05.216Z,98061.56
2023-02-02T09:50:37.468Z,98055.38
2023-02-02T09:53:14.239Z,98054.97
2023-02-02T09:55:45.575Z,98060.09
2023-02-02T09:58:16.901Z,98047.78
2023-02-02T10:00:54.964Z,98051.50
2023-02-02T10:03:41.375Z,98043.97
2023-02-02T10:06:26.891Z,98054.81
2023-02-02T10:09:02.038Z,98049.56
2023-02-02T10:11:34.695Z,98044.69
2023-02-02T10:14:06.256Z,98049.19
2023-02-02T10:16:34.380Z,98040.56
2023-02-02T10:19:06.353Z,98040.50
2023-02-02T10:21:37.981Z,98031.50
2023-02-02T10:24:05.070Z,98033.94
2023-02-02T10:26:35.229Z,98035.81
2023-02-02T10:29:12.397Z,98035.47
2023-02-02T10:31:42.893Z,98029.13
2023-02-02T10:34:16.048Z,98037.66
2023-02-02T10:36:42.913Z,98030.75
2023-02-02T10:39:20.516Z,98031.44
2023-02-02T10:41:52.695Z,98034.19
2023-02-02T10:44:24.736Z,98027.34
2023-02-02T10:47:01.385Z,98022.72
2023-02-02T10:49:34.540Z,98024.47
2023-02-02T10:52:11.978Z,98012.03
2023-02-02T10:54:57.641Z,98018.66
2023-02-02T10:57:39.259Z,98015.28
2023-02-02T11:00:19.683Z,98015.53
2023-02-02T11:02:49.045Z,98011.44
2023-02-02T11:05:38.622Z,98018.97
2023-02-02T11:08:11.546Z,98021.13
2023-02-02T11:10:38.444Z,98017.69
2023-02-02T11:13:06.459Z,98028.22
2023-02-02T11:15:33.423Z,98024.78
2023-02-02T11:18:14.482Z,98030.66
2023-02-02T11:20:41.299Z,98026.81
2023-02-02T11:23:16.821Z,98039.03
2023-02-02T11:25:43.728Z,98031.09
2023-02-02T11:28:19.235Z,98029.06
2023-02-02T11:30:47.392Z,98029.41
2023-02-02T11:33:29.968Z,98027.97
2023-02-02T11:35:56.809Z,98038.84
2023-02-02T11:38:24.132Z,98031.31
2023-02-02T11:41:05.501Z,98038.78
2023-02-02T11:43:43.770Z,98038.78
2023-02-02T11:46:21.263Z,98037.47
2023-02-02T11:48:53.452Z,98038.09
2023-02-02T11:51:26.455Z,98039.31
2023-02-02T11:54:01.597Z,98030.06
2023-02-02T11:56:28.957Z,98038.66
2023-02-02T11:58:56.843Z,98033.75
2023-02-02T12:01:23.948Z,98041.72
2023-02-02T12:03:51.889Z,98040.78
2023-02-02T12:06:25.130Z,98048.75
2023-02-02T12:09:21.759Z,98044.94
2023-02-02T12:11:54.996Z,98054.19
2023-02-02T12:14:52.767Z,98050.63
2023-02-02T12:21:10.183Z,98048.94
2023-02-02T12:23:37.281Z,98061.09
2023-02-02T12:26:28.270Z,98053.47
2023-02-02T12:29:04.231Z,98056.56
2023-02-02T12:31:41.800Z,98055.41
2023-02-02T12:34:11.998Z,98058.09
2023-02-02T12:36:47.682Z,98053.31
2023-02-02T12:39:21.102Z,98060.84
2023-02-02T12:41:51.193Z,98048.53
2023-02-02T12:44:25.067Z,98048.19
2023-02-02T12:47:00.689Z,98060.44
2023-02-02T12:49:30.847Z,98060.38
2023-02-02T12:52:11.403Z,98056.78
2023-02-02T12:54:57.735Z,98062.53
2023-02-02T12:57:25.252Z,98065.09
2023-02-02T13:00:07.735Z,98069.06
2023-02-02T13:03:01.021Z,98066.56
2023-02-02T13:08:28.904Z,98067.66
2023-02-02T13:11:38.077Z,98070.78
2023-02-02T13:18:56.959Z,98069.66
2023-02-02T13:21:25.069Z,98063.97
2023-02-02T13:23:54.089Z,98060.41
2023-02-02T13:26:35.697Z,98065.63
2023-02-02T13:29:12.692Z,98060.19
2023-02-02T13:31:40.928Z,98064.97
2023-02-02T13:34:07.844Z,98064.38
2023-02-02T13:36:37.728Z,98066.72
2023-02-02T13:39:12.808Z,98063.47
2023-02-02T13:41:40.073Z,98059.44
2023-02-02T13:44:21.723Z,98070.59
2023-02-02T13:46:54.290Z,98065.16
2023-02-02T13:49:26.265Z,98069.09
2023-02-02T13:52:11.907Z,98080.00
2023-02-02T13:54:42.830Z,98076.16
2023-02-02T13:57:18.162Z,98080.59
2023-02-02T13:59:45.949Z,98066.66
2023-02-02T14:02:33.871Z,98081.06
2023-02-02T14:05:02.166Z,98082.59
2023-02-02T14:07:42.470Z,98075.53
2023-02-02T14:10:26.985Z,98089.34
2023-02-02T14:12:55.957Z,98088.53
2023-02-02T14:15:47.357Z,98083.41
2023-02-02T14:18:34.319Z,98088.41
2023-02-02T14:21:01.283Z,98088.63
2023-02-02T14:23:46.823Z,98090.72
2023-02-02T14:26:19.955Z,98095.00
2023-02-02T14:28:48.495Z,98101.16
2023-02-02T14:31:42.871Z,98096.88
2023-02-02T14:34:26.872Z,98097.44
2023-02-02T14:37:01.920Z,98106.50
2023-02-02T14:39:30.441Z,98109.41
2023-02-02T14:42:25.827Z,98106.72
2023-02-02T14:45:15.958Z,98103.59
2023-02-02T14:47:47.001Z,98112.56
2023-02-02T14:50:32.808Z,98115.22
2023-02-02T14:53:03.718Z,98114.41
2023-02-02T14:55:31.287Z,98118.34
2023-02-02T14:58:00.644Z,98121.47
2023-02-02T15:00:34.461Z,98128.44
2023-02-02T15:03:26.315Z,98112.41
2023-02-02T15:06:04.888Z,98118.00
2023-02-02T15:08:32.191Z,98126.22
2023-02-02T15:11:01.638Z,98125.19
2023-02-02T15:13:37.799Z,98118.00
2023-02-02T15:16:15.009Z,98124.13
2023-02-02T15:18:50.400Z,98125.19
2023-02-02T15:21:22.174Z,98127.03
2023-02-02T15:23:49.456Z,98122.75
2023-02-02T15:26:24.476Z,98131.56
2023-02-02T15:28:51.569Z,98134.47
2023-02-02T15:31:26.353Z,98127.75
2023-02-02T15:34:05.360Z,98131.00
2023-02-02T15:36:34.145Z,98129.13
2023-02-02T15:39:13.615Z,98127.28
2023-02-02T15:41:44.391Z,98132.84
2023-02-02T15:44:22.844Z,98141.09
2023-02-02T15:46:49.973Z,98139.22
2023-02-02T15:49:33.182Z,98140.50
2023-02-02T15:52:26.853Z,98149.31
2023-02-02T15:55:00.807Z,98149.31
2023-02-02T15:57:27.908Z,98152.00
2023-02-02T15:59:56.976Z,98144.56
2023-02-02T16:02:32.371Z,98148.63
2023-02-02T16:05:09.997Z,98151.06
2023-02-02T16:07:53.213Z,98153.75
2023-02-02T16:10:25.121Z,98153.75
2023-02-02T16:20:29.177Z,98145.16
2023-02-02T16:23:13.977Z,98146.19
2023-02-02T16:25:53.428Z,98142.72
2023-02-02T16:32:11.254Z,98153.63
2023-02-02T16:35:03.592Z,98162.69
2023-02-02T16:37:57.727Z,98166.16
2023-02-02T16:40:30.994Z,98165.13
2023-02-02T16:43:06.407Z,98168.38
2023-02-02T16:45:59.021Z,98173.69
2023-02-02T16:48:29.520Z,98171.38
2023-02-02T16:52:27.463Z,98174.88
2023-02-02T16:55:50.622Z,98168.94
2023-02-02T16:59:19.352Z,98179.03
2023-02-02T17:02:00.489Z,98180.91
2023-02-02T17:07:35.329Z,98182.97
2023-02-02T17:10:38.341Z,98192.03
2023-02-02T17:13:28.503Z,98197.38
2023-02-02T17:16:04.871Z,98200.63
2023-02-02T17:18:34.593Z,98197.72
2023-02-02T17:21:09.476Z,98199.34
2023-02-02T17:23:44.698Z,98202.03
2023-02-02T17:26:12.441Z,98205.72
2023-02-02T17:32:14.470Z,98206.09
2023-02-02T17:34:43.096Z,98204.00
2023-02-02T17:37:16.517Z,98210.72
2023-02-02T17:39:43.634Z,98209.47
2023-02-02T17:42:30.806Z,98210.88
2023-02-02T17:45:30.611Z,98207.97
2023-02-02T17:48:15.703Z,98206.34
2023-02-02T17:50:43.916Z,98206.81
2023-02-02T17:53:19.524Z,98206.00
2023-02-02T17:55:54.302Z,98208.88
2023-02-02T17:58:25.073Z,98206.44
2023-02-02T18:00:54.080Z,98215.47
2023-02-02T18:03:26.889Z,98221.06
2023-02-02T18:05:56.765Z,98215.94
2023-02-02T18:08:26.670Z,98213.03
2023-02-02T18:10:53.627Z,98210.38
2023-02-02T18:13:36.229Z,98215.72
2023-02-02T18:16:05.995Z,98214.09
2023-02-02T18:18:33.095Z,98210.59
2023-02-02T18:21:00.006Z,98210.84
2023-02-02T18:23:27.622Z,98217.69
2023-02-02T18:25:54.598Z,98222.44
2023-02-02T18:28:24.586Z,98219.19
2023-02-02T18:30:51.641Z,98214.66
2023-02-02T18:33:20.193Z,98225.09
2023-02-02T18:35:47.670Z,98225.91
2023-02-02T18:38:19.914Z,98212.56
2023-02-02T18:40:56.460Z,98218.97
2023-02-02T18:43:25.509Z,98225.56
2023-02-02T18:46:02.844Z,98211.88
2023-02-02T18:48:29.869Z,98222.31
2023-02-02T18:50:56.759Z,98220.69
2023-02-02T18:53:23.714Z,98223.38
2023-02-02T18:55:50.648Z,98220.91
2023-02-02T18:58:17.540Z,98230.19
2023-02-02T19:00:45.585Z,98231.47
2023-02-02T19:03:14.019Z,98226.38
2023-02-02T19:05:59.487Z,98237.03
2023-02-02T19:08:26.436Z,98224.50
2023-02-02T19:10:57.695Z,98228.22
2023-02-02T19:13:24.630Z,98227.59
2023-02-02T19:15:53.860Z,98229.94
2023-02-02T19:18:23.166Z,98227.94
2023-02-02T19:20:51.116Z,98230.03
2023-02-02T19:23:23.535Z,98231.06
2023-02-02T19:25:51.743Z,98231.88
2023-02-02T19:28:19.019Z,98226.78
2023-02-02T19:30:46.004Z,98227.00
2023-02-02T19:33:15.538Z,98223.75
2023-02-02T19:35:46.782Z,98221.09
2023-02-02T19:38:14.139Z,98225.84
2023-02-02T19:40:41.970Z,98220.97
2023-02-02T19:43:13.567Z,98221.06
2023-02-02T19:45:40.959Z,98222.53
2023-02-02T19:48:18.115Z,98228.53
2023-02-02T19:50:45.421Z,98234.09
2023-02-02T19:53:14.265Z,98234.09
2023-02-02T19:55:43.078Z,98233.66
2023-02-02T19:58:14.138Z,98243.84
2023-02-02T20:00:41.500Z,98236.44
2023-02-02T20:03:13.023Z,98240.75
2023-02-02T20:05:41.171Z,98237.25
2023-02-02T20:08:43.791Z,98236.03
2023-02-02T20:11:32.638Z,98235.41
2023-02-02T20:14:00.434Z,98232.16
2023-02-02T20:16:36.284Z,98241.41
2023-02-02T20:19:03.348Z,98237.34
2023-02-02T20:21:43.867Z,98237.81
2023-02-02T20:24:18.964Z,98230.84
2023-02-02T20:26:46.614Z,98236.41
2023-02-02T20:29:13.917Z,98239.66
2023-02-02T20:31:41.182Z,98232.25
2023-02-02T20:34:26.652Z,98240.84
2023-02-02T20:37:13.919Z,98243.84
2023-02-02T20:39:48.531Z,98245.47
2023-02-02T20:42:15.909Z,98237.47
2023-02-02T20:44:43.253Z,98243.63
2023-02-02T20:47:10.300Z,98242.00
2023-02-02T20:49:37.947Z,98247.34
2023-02-02T20:52:08.193Z,98240.59
2023-02-02T20:54:35.173Z,98237.34
2023-02-02T20:57:02.512Z,98245.81
2023-02-02T20:59:29.944Z,98246.03
2023-02-02T21:01:57.023Z,98243.38
2023-02-02T21:04:25.671Z,98247.66
2023-02-02T21:06:52.782Z,98252.41
2023-02-02T21:09:19.650Z,98247.31
2023-02-02T21:11:47.562Z,98251.59
2023-02-02T21:14:15.049Z,98253.44
2023-02-02T21:16:42.621Z,98257.16
2023-02-02T21:19:09.860Z,98247.53
2023-02-02T21:21:36.953Z,98251.81
2023-02-02T21:24:04.430Z,98256.94
2023-02-02T21:26:31.445Z,98255.66
2023-02-02T21:28:58.594Z,98258.56
2023-02-02T21:31:25.724Z,98257.75
2023-02-02T21:33:53.329Z,98251.38
2023-02-02T21:36:29.027Z,98249.28
2023-02-02T21:39:31.517Z,98254.97
2023-02-02T21:42:13.699Z,98254.75
2023-02-02T21:44:45.325Z,98249.41
2023-02-02T21:47:25.554Z,98256.38
2023-02-02T21:49:52.768Z,98250.00
2023-02-02T21:52:20.403Z,98253.50
2023-02-02T21:54:47.796Z,98254.75
2023-02-02T21:57:14.656Z,98248.84
2023-02-02T21:59:41.506Z,98249.06
2023-02-02T22:02:17.531Z,98261.81
2023-02-02T22:04:44.501Z,98254.63
2023-02-02T22:07:14.217Z,98258.69
2023-02-02T22:09:42.908Z,98264.38
2023-02-02T22:12:23.341Z,98268.44
2023-02-02T22:14:51.933Z,98270.88
2023-02-02T22:17:22.278Z,98271.50
2023-02-02T22:20:15.634Z,98265.94
2023-02-02T22:22:44.743Z,98271.06
2023-02-02T22:25:18.484Z,98278.38
2023-02-02T22:27:46.080Z,98266.22
2023-02-02T22:30:25.629Z,98264.72
2023-02-02T22:32:53.172Z,98265.28
2023-02-02T22:35:20.357Z,98264.47
2023-02-02T22:37:47.153Z,98269.59
2023-02-02T22:40:14.741Z,98269.59
2023-02-02T22:42:41.611Z,98268.78
2023-02-02T22:45:08.646Z,98265.44
2023-02-02T22:47:35.603Z,98265.78
2023-02-02T22:50:02.492Z,98263.94
2023-02-02T22:52:29.779Z,98267.22
2023-02-02T22:54:56.646Z,98267.22
2023-02-02T22:57:23.528Z,98266.41
2023-02-02T22:59:50.377Z,98266.41
2023-02-02T23:02:19.542Z,98267.22
2023-02-02T23:04:47.031Z,98262.09
2023-02-02T23:07:14.171Z,98264.97
2023-02-02T23:09:41.055Z,98258.47
2023-02-02T23:12:07.990Z,98264.03
2023-02-02T23:14:34.905Z,98266.09
2023-02-02T23:17:01.935Z,98267.38
2023-02-02T23:19:29.898Z,98269.47
2023-02-02T23:21:57.126Z,98268.66
2023-02-02T23:24:24.134Z,98268.06
2023-02-02T23:26:51.287Z,98260.28
2023-02-02T23:29:18.131Z,98269.91
2023-02-02T23:31:45.013Z,98260.88
2023-02-02T23:34:12.034Z,98254.50
2023-02-02T23:36:38.906Z,98255.06
2023-02-02T23:39:06.020Z,98248.69
2023-02-02T23:41:32.917Z,98252.41
2023-02-02T23:43:59.874Z,98250.19
2023-02-02T23:46:29.969Z,98249.03
2023-02-02T23:48:57.512Z,98252.75
2023-02-02T23:51:27.429Z,98250.31
2023-02-02T23:53:57.395Z,98254.81
2023-02-02T23:56:24.300Z,98256.91
2023-02-02T23:58:51.159Z,98258.75
